Time;durP1;ratioP1;P1;durP2;ratioP2;P2;SDS_P1;SDS_P2;PMS_P1;PMS_P2;Temp;Humidity;BMP_temperature;BMP_pressure;BME280_temperature;BME280_humidity;BME280_pressure;Samples;Min_cycle;Max_cycle;Signal;HPM_P1;HPM_P2
2022/03/16 00:02:19;;;;;;;46.88;29.88;;;;;;;5.15;92.27;102332.75;5035905;28;20038;-62
2022/03/16 00:04:49;;;;;;;50.47;31.15;;;;;;;5.13;92.82;102334.41;5035849;28;20109;-62
2022/03/16 00:07:16;;;;;;;50.90;31.05;;;;;;;5.17;92.99;102331.09;5035743;28;20377;-62
2022/03/16 00:09:41;;;;;;;47.72;30.17;;;;;;;5.15;92.97;102334.47;5035544;28;20079;-62
2022/03/16 00:12:07;;;;;;;49.58;30.15;;;;;;;5.06;93.11;102336.75;5035587;28;20395;-61
2022/03/16 00:14:32;;;;;;;48.00;29.08;;;;;;;5.05;93.06;102338.47;5035521;28;20112;-63
2022/03/16 00:16:58;;;;;;;46.13;29.17;;;;;;;5.02;92.55;102345.28;5035491;28;20087;-62
2022/03/16 00:19:23;;;;;;;48.95;30.27;;;;;;;4.98;92.88;102338.22;5035381;28;20136;-62
2022/03/16 00:21:48;;;;;;;47.08;30.48;;;;;;;4.96;92.65;102345.94;5035704;28;20045;-61
2022/03/16 00:24:13;;;;;;;49.13;30.92;;;;;;;4.94;93.52;102341.53;5035693;28;20587;-63
2022/03/16 00:26:39;;;;;;;52.35;32.42;;;;;;;4.94;94.30;102341.53;5035395;28;20091;-61
2022/03/16 00:29:04;;;;;;;48.67;31.25;;;;;;;4.88;93.66;102337.00;5035211;28;20424;-62
2022/03/16 00:31:29;;;;;;;51.75;31.95;;;;;;;4.93;94.81;102337.19;5035248;28;20456;-62
2022/03/16 00:33:54;;;;;;;51.25;32.40;;;;;;;4.98;95.39;102344.28;5035249;28;20038;-62
2022/03/16 00:36:21;;;;;;;48.58;31.88;;;;;;;4.99;94.37;102340.88;5035354;28;20040;-61
2022/03/16 00:38:47;;;;;;;50.65;31.48;;;;;;;4.87;93.78;102341.31;5035113;28;20037;-61
2022/03/16 00:41:12;;;;;;;50.28;31.65;;;;;;;4.98;94.75;102344.28;5035068;28;20320;-61
2022/03/16 00:43:38;;;;;;;50.78;32.38;;;;;;;4.97;94.75;102333.88;5035302;28;20456;-61
2022/03/16 00:46:03;;;;;;;52.85;32.67;;;;;;;4.95;94.69;102330.34;5035160;28;20033;-62
2022/03/16 00:48:28;;;;;;;51.05;32.65;;;;;;;4.95;95.50;102333.81;5035124;28;20029;-61
2022/03/16 00:50:53;;;;;;;51.58;31.30;;;;;;;4.91;95.06;102342.31;5035061;28;20053;-62
2022/03/16 00:53:19;;;;;;;51.15;30.95;;;;;;;4.87;94.87;102330.06;5034469;28;20029;-62
2022/03/16 00:55:44;;;;;;;50.80;31.38;;;;;;;4.82;94.71;102327.34;5034740;28;20425;-60
2022/03/16 00:58:09;;;;;;;47.50;30.30;;;;;;;4.82;95.01;102321.25;5034724;28;20041;-62
2022/03/16 01:00:35;;;;;;;48.50;31.73;;;;;;;4.83;95.07;102336.00;5035217;28;20119;-61
2022/03/16 01:03:00;;;;;;;50.10;30.02;;;;;;;4.79;94.78;102332.41;5035057;28;20033;-61
2022/03/16 01:05:25;;;;;;;52.20;32.17;;;;;;;4.74;95.39;102325.28;5035005;28;20038;-61
2022/03/16 01:07:50;;;;;;;49.05;31.30;;;;;;;4.53;95.18;102304.69;5034432;28;20037;-61
2022/03/16 01:10:16;;;;;;;50.97;31.20;;;;;;;4.67;95.22;102329.41;5035013;28;20091;-61
2022/03/16 01:12:41;;;;;;;50.25;30.60;;;;;;;4.68;95.78;102327.66;5034699;28;20045;-62
2022/03/16 01:15:07;;;;;;;53.08;31.85;;;;;;;4.69;96.01;102325.13;5034026;28;20120;-62
2022/03/16 01:17:32;;;;;;;51.53;31.63;;;;;;;4.58;95.97;102312.63;5034593;28;20356;-62
2022/03/16 01:19:57;;;;;;;50.00;31.48;;;;;;;4.62;95.78;102330.06;5034470;28;20052;-61
2022/03/16 01:22:23;;;;;;;50.97;31.40;;;;;;;4.65;95.98;102327.59;5036831;28;20056;-61
2022/03/16 01:24:48;;;;;;;50.10;32.10;;;;;;;4.60;96.39;102321.34;5038631;28;20111;-61
2022/03/16 01:27:13;;;;;;;48.95;30.75;;;;;;;4.62;95.45;102318.00;5038914;28;20041;-62
2022/03/16 01:29:38;;;;;;;46.05;30.20;;;;;;;4.55;96.23;102300.44;5038794;28;20033;-62
2022/03/16 01:32:04;;;;;;;47.47;29.40;;;;;;;4.64;95.94;102316.34;5038314;28;20171;-61
2022/03/16 01:34:29;;;;;;;47.75;30.50;;;;;;;4.74;96.41;102325.28;5038641;28;20040;-61
2022/03/16 01:36:55;;;;;;;48.95;29.85;;;;;;;4.70;96.42;102321.72;5038390;28;20037;-62
2022/03/16 01:39:21;;;;;;;48.35;30.17;;;;;;;4.66;96.18;102311.22;5038416;28;20563;-62
2022/03/16 01:41:46;;;;;;;49.20;30.60;;;;;;;4.64;96.04;102320.63;5038312;28;20044;-62
2022/03/16 01:44:11;;;;;;;47.95;30.48;;;;;;;4.61;95.83;102316.22;5038272;28;20036;-61
2022/03/16 01:46:37;;;;;;;51.35;31.17;;;;;;;4.61;96.66;102297.19;5038251;28;20040;-61
2022/03/16 01:49:03;;;;;;;49.20;30.00;;;;;;;4.57;96.83;102290.13;5038245;28;20322;-62
2022/03/16 01:51:29;;;;;;;51.92;31.00;;;;;;;4.58;97.24;102284.13;5038181;28;20440;-61
2022/03/16 01:53:54;;;;;;;50.00;31.10;;;;;;;4.55;98.12;102290.09;5038413;28;20033;-63
2022/03/16 01:56:19;;;;;;;50.85;30.05;;;;;;;4.58;97.84;102294.50;5037986;28;20030;-63
2022/03/16 01:58:45;;;;;;;50.17;30.10;;;;;;;4.62;98.25;102292.06;5038028;28;20360;-62
2022/03/16 02:01:11;;;;;;;52.67;31.92;;;;;;;4.61;98.24;102292.91;5037931;28;20040;-62
2022/03/16 02:03:36;;;;;;;53.13;29.92;;;;;;;4.63;97.95;102292.94;5037888;28;20030;-62
2022/03/16 02:06:02;;;;;;;45.00;28.70;;;;;;;4.65;98.51;102286.09;5037980;28;20112;-62
2022/03/16 02:08:29;;;;;;;47.28;29.23;;;;;;;4.58;98.36;102272.03;5037934;28;20433;-62
2022/03/16 02:10:54;;;;;;;50.78;29.73;;;;;;;4.55;98.45;102285.78;5037885;28;20040;-62
2022/03/16 02:13:20;;;;;;;45.97;27.58;;;;;;;4.56;99.12;102271.09;5037809;28;20029;-61
2022/03/16 02:15:45;;;;;;;46.10;28.50;;;;;;;4.55;98.61;102265.03;5037948;28;20041;-63
2022/03/16 02:18:10;;;;;;;46.55;28.75;;;;;;;4.51;98.68;102268.34;5037649;28;20444;-62
2022/03/16 02:20:37;;;;;;;45.63;27.63;;;;;;;4.55;99.08;102270.22;5037968;28;20060;-62
2022/03/16 02:23:05;;;;;;;44.92;27.52;;;;;;;4.58;99.01;102269.44;5037920;28;20041;-62
2022/03/16 02:25:30;;;;;;;45.47;27.98;;;;;;;4.55;99.05;102280.59;5037541;28;20021;-62
2022/03/16 02:27:57;;;;;;;43.10;27.75;;;;;;;4.56;98.82;102271.09;5037360;28;20033;-61
2022/03/16 02:30:25;;;;;;;48.10;29.00;;;;;;;4.57;99.47;102275.47;5037322;28;20029;-63
2022/03/16 02:32:50;;;;;;;43.47;27.98;;;;;;;4.52;99.19;102270.13;5037696;28;20029;-62
2022/03/16 02:35:16;;;;;;;44.85;28.80;;;;;;;4.60;99.00;102272.09;5037614;28;20106;-62
2022/03/16 02:37:41;;;;;;;43.45;29.42;;;;;;;4.54;98.96;102272.75;5037459;28;20038;-64
2022/03/16 02:40:10;;;;;;;46.05;29.50;;;;;;;4.52;99.10;102277.88;5037335;28;20409;-62
2022/03/16 02:42:36;;;;;;;47.85;29.92;;;;;;;4.49;99.18;102279.53;5037441;28;20116;-62
2022/03/16 02:45:01;;;;;;;47.70;30.40;;;;;;;4.44;99.64;102274.19;5037526;28;20033;-61
2022/03/16 02:47:27;;;;;;;44.28;29.50;;;;;;;4.44;99.50;102269.00;5037380;28;20505;-62
2022/03/16 02:49:54;;;;;;;41.97;28.70;;;;;;;4.48;99.78;102275.16;5037403;28;20029;-62
2022/03/16 02:52:19;;;;;;;44.83;29.42;;;;;;;4.45;99.74;102280.25;5037130;28;20037;-61
2022/03/16 02:54:45;;;;;;;43.70;29.75;;;;;;;4.40;99.55;102261.94;5037112;28;20033;-62
2022/03/16 02:57:13;;;;;;;43.47;28.27;;;;;;;4.38;99.68;102258.41;5036835;28;20045;-62
2022/03/16 02:59:38;;;;;;;43.28;28.42;;;;;;;4.29;99.20;102244.25;5036980;28;20113;-63
2022/03/16 03:02:04;;;;;;;46.72;29.00;;;;;;;4.27;99.34;102251.09;5037236;28;20440;-62
2022/03/16 03:04:30;;;;;;;45.00;27.98;;;;;;;4.26;99.35;102247.63;5036783;28;20407;-61
2022/03/16 03:06:55;;;;;;;41.95;28.40;;;;;;;4.23;99.84;102249.22;5037071;28;20033;-62
2022/03/16 03:09:20;;;;;;;45.67;29.35;;;;;;;4.25;100.00;102253.63;5036789;28;20128;-62
2022/03/16 03:11:45;;;;;;;46.63;29.05;;;;;;;4.27;100.00;102253.69;5036868;28;20033;-62
2022/03/16 03:14:11;;;;;;;44.60;28.77;;;;;;;4.27;99.92;102246.78;5036408;28;20032;-62
2022/03/16 03:16:36;;;;;;;44.97;28.67;;;;;;;4.20;100.00;102239.63;5036472;28;20029;-62
2022/03/16 03:19:01;;;;;;;41.60;28.58;;;;;;;4.24;99.87;102256.16;5036248;28;20041;-62
2022/03/16 03:21:27;;;;;;;42.35;27.88;;;;;;;4.24;100.00;102256.16;5036796;28;20033;-62
2022/03/16 03:23:52;;;;;;;42.95;28.85;;;;;;;4.24;100.00;102257.03;5036603;28;20037;-65
2022/03/16 03:26:18;;;;;;;41.47;28.52;;;;;;;4.20;100.00;102265.53;5036304;28;20131;-62
2022/03/16 03:28:43;;;;;;;45.50;29.40;;;;;;;4.20;100.00;102273.31;5036410;28;20041;-61
2022/03/16 03:31:08;;;;;;;43.78;28.60;;;;;;;4.23;100.00;102268.22;5036535;28;20025;-62
2022/03/16 03:33:33;;;;;;;46.58;30.02;;;;;;;4.23;100.00;102262.16;5036567;28;20056;-62
2022/03/16 03:35:59;;;;;;;44.13;28.92;;;;;;;4.22;100.00;102261.28;5036217;28;20022;-62
2022/03/16 03:38:24;;;;;;;46.25;28.92;;;;;;;4.19;100.00;102263.78;5036294;28;20029;-62
2022/03/16 03:40:49;;;;;;;43.97;28.33;;;;;;;4.17;100.00;102258.53;5036387;28;20030;-62
2022/03/16 03:43:14;;;;;;;41.30;27.55;;;;;;;4.17;100.00;102258.53;5036244;28;20025;-61
2022/03/16 03:45:40;;;;;;;42.92;27.58;;;;;;;4.15;100.00;102259.34;5034732;28;20368;-62
2022/03/16 03:48:05;;;;;;;43.28;27.08;;;;;;;4.15;100.00;102259.34;5036051;28;20030;-61
2022/03/16 03:50:30;;;;;;;43.50;27.02;;;;;;;4.18;100.00;102259.41;5036239;28;20026;-61
2022/03/16 03:52:56;;;;;;;36.88;25.48;;;;;;;4.18;100.00;102255.13;5036058;28;20040;-63
2022/03/16 03:55:22;;;;;;;38.75;26.48;;;;;;;4.20;100.00;102265.53;5036056;28;20029;-62
2022/03/16 03:57:48;;;;;;;41.97;27.92;;;;;;;4.21;100.00;102256.94;5035800;28;20033;-61
2022/03/16 04:00:13;;;;;;;42.47;27.70;;;;;;;4.19;100.00;102259.47;5035773;28;20107;-61
2022/03/16 04:02:46;;;;;;;45.17;28.83;;;;;;;4.17;100.00;102258.53;5035916;28;20065;-61
2022/03/16 04:05:11;;;;;;;44.50;27.58;;;;;;;4.19;100.00;102256.00;5035862;28;20120;-62
2022/03/16 04:07:36;;;;;;;44.55;27.63;;;;;;;4.15;100.00;102259.34;5035945;28;20116;-62
2022/03/16 04:10:02;;;;;;;43.58;27.65;;;;;;;4.16;100.00;102253.28;5035697;28;20435;-62
2022/03/16 04:12:27;;;;;;;38.70;27.10;;;;;;;4.17;100.00;102252.47;5035859;28;20120;-61
2022/03/16 04:14:52;;;;;;;43.58;27.98;;;;;;;4.12;100.00;102244.56;5035986;28;20025;-62
2022/03/16 04:17:17;;;;;;;46.05;29.83;;;;;;;4.14;100.00;102242.03;5035487;28;20099;-62
2022/03/16 04:19:43;;;;;;;45.05;28.60;;;;;;;4.21;100.00;102251.75;5035484;28;20128;-61
2022/03/16 04:22:10;;;;;;;45.90;28.92;;;;;;;4.19;100.00;102240.44;5035516;28;20045;-62
2022/03/16 04:24:35;;;;;;;46.95;29.67;;;;;;;4.17;100.00;102248.16;5035345;28;20104;-62
2022/03/16 04:27:00;;;;;;;45.92;29.98;;;;;;;4.22;100.00;102257.81;5035578;28;20064;-62
2022/03/16 04:29:26;;;;;;;45.67;29.23;;;;;;;4.10;100.00;102227.19;5034955;28;20038;-62
2022/03/16 04:31:51;;;;;;;49.05;29.88;;;;;;;4.22;100.00;102253.50;5035351;28;20029;-61
2022/03/16 04:34:16;;;;;;;49.35;31.13;;;;;;;4.18;100.00;102238.69;5035460;28;20112;-61
2022/03/16 04:36:42;;;;;;;47.53;30.08;;;;;;;4.20;100.00;102242.22;5035229;28;20025;-63
2022/03/16 04:39:07;;;;;;;46.45;31.08;;;;;;;4.15;100.00;102246.38;5035099;28;20039;-62
2022/03/16 04:41:33;;;;;;;48.13;30.50;;;;;;;4.17;100.00;102247.28;5034768;28;20045;-63
2022/03/16 04:43:58;;;;;;;46.45;30.92;;;;;;;4.13;100.00;102248.91;5035177;28;20425;-62
2022/03/16 04:46:23;;;;;;;45.17;30.70;;;;;;;4.11;100.00;102247.09;5035207;28;20040;-61
2022/03/16 04:48:48;;;;;;;49.90;31.55;;;;;;;4.08;100.00;102246.97;5035430;28;20033;-62
2022/03/16 04:51:14;;;;;;;46.63;29.98;;;;;;;4.15;100.00;102254.16;5035148;28;20037;-61
2022/03/16 04:53:39;;;;;;;45.03;30.33;;;;;;;4.16;100.00;102254.19;5035191;28;20460;-62
2022/03/16 04:56:04;;;;;;;47.55;32.30;;;;;;;4.12;100.00;102244.56;5033667;28;20095;-62
2022/03/16 04:58:31;;;;;;;48.78;30.92;;;;;;;4.12;100.00;102248.84;5034876;28;20041;-62
2022/03/16 05:00:57;;;;;;;49.83;33.45;;;;;;;4.16;100.00;102249.00;5034989;28;20514;-63
2022/03/16 05:03:22;;;;;;;47.58;31.48;;;;;;;4.15;100.00;102243.78;5035002;28;20112;-62
2022/03/16 05:05:47;;;;;;;47.30;31.20;;;;;;;4.17;100.00;102255.94;5034863;28;20069;-62
2022/03/16 05:08:13;;;;;;;51.80;32.35;;;;;;;4.15;100.00;102259.34;5034960;28;20349;-62
2022/03/16 05:10:38;;;;;;;48.17;31.58;;;;;;;4.18;100.00;102262.88;5034227;28;20057;-62
2022/03/16 05:13:03;;;;;;;49.53;30.73;;;;;;;4.16;100.00;102251.59;5035091;28;20071;-61
2022/03/16 05:15:28;;;;;;;46.63;30.50;;;;;;;4.17;100.00;102249.88;5034710;28;20033;-61
2022/03/16 05:17:54;;;;;;;46.40;30.15;;;;;;;4.17;100.00;102249.88;5034761;28;20034;-61
2022/03/16 05:20:19;;;;;;;48.08;30.27;;;;;;;4.13;100.00;102245.44;5034898;28;20421;-62
2022/03/16 05:22:49;;;;;;;48.28;31.40;;;;;;;4.10;100.00;102243.63;5034833;28;20040;-62
2022/03/16 05:25:18;;;;;;;46.88;30.50;;;;;;;3.99;100.00;102223.31;5034540;28;20484;-61
2022/03/16 05:27:43;;;;;;;47.15;31.20;;;;;;;4.07;100.00;102232.25;5034174;28;20472;-61
2022/03/16 05:30:10;;;;;;;45.40;29.88;;;;;;;4.04;100.00;102232.16;5034396;28;20043;-61
2022/03/16 05:32:36;;;;;;;46.20;29.80;;;;;;;4.04;100.00;102230.44;5034869;28;20022;-61
2022/03/16 05:35:01;;;;;;;46.05;30.40;;;;;;;4.08;100.00;102228.84;5034786;28;20450;-62
2022/03/16 05:37:26;;;;;;;51.05;30.15;;;;;;;4.07;100.00;102227.06;5034672;28;20424;-62
2022/03/16 05:39:52;;;;;;;43.58;28.35;;;;;;;4.06;100.00;102223.59;5033721;28;20087;-61
2022/03/16 05:42:18;;;;;;;44.13;28.73;;;;;;;4.09;100.00;102235.78;5034735;28;20033;-62
2022/03/16 05:44:43;;;;;;;44.17;28.98;;;;;;;4.12;100.00;102229.00;5034737;28;20418;-61
2022/03/16 05:47:09;;;;;;;47.88;29.48;;;;;;;4.11;100.00;102234.13;5034442;28;20325;-61
2022/03/16 05:49:34;;;;;;;44.60;28.85;;;;;;;4.12;100.00;102243.69;5034541;28;20026;-62
2022/03/16 05:51:59;;;;;;;46.58;29.30;;;;;;;4.14;100.00;102244.63;5034312;28;20108;-62
2022/03/16 05:54:24;;;;;;;42.50;27.58;;;;;;;4.18;100.00;102249.06;5034881;28;20110;-61
2022/03/16 05:56:50;;;;;;;42.33;27.02;;;;;;;4.21;100.00;102256.94;5034295;28;20340;-61
2022/03/16 05:59:15;;;;;;;41.63;27.13;;;;;;;3.99;100.00;102215.56;5034590;28;20030;-61
2022/03/16 06:01:40;;;;;;;40.22;27.02;;;;;;;4.23;100.00;102246.63;5034517;28;20030;-62
2022/03/16 06:04:05;;;;;;;45.28;28.20;;;;;;;4.18;100.00;102246.47;5034420;28;20340;-61
2022/03/16 06:06:31;;;;;;;43.90;26.95;;;;;;;4.18;100.00;102246.47;5034271;28;20037;-62
2022/03/16 06:08:57;;;;;;;43.45;27.80;;;;;;;4.25;100.00;102265.69;5037474;28;20036;-61
2022/03/16 06:11:22;;;;;;;42.15;26.45;;;;;;;4.34;100.00;102261.72;5038044;28;20025;-61
2022/03/16 06:13:48;;;;;;;44.83;28.08;;;;;;;4.27;100.00;102254.56;5037821;28;20036;-61
2022/03/16 06:16:13;;;;;;;41.17;26.20;;;;;;;4.39;100.00;102262.75;5037829;28;20448;-62
2022/03/16 06:18:38;;;;;;;41.50;25.88;;;;;;;4.35;100.00;102260.00;5037502;28;20045;-61
2022/03/16 06:21:03;;;;;;;43.15;27.08;;;;;;;4.37;100.00;102256.63;5037800;28;20037;-61
2022/03/16 06:23:29;;;;;;;43.75;25.70;;;;;;;4.37;100.00;102263.53;5037691;28;20433;-61
2022/03/16 06:25:54;;;;;;;38.97;26.67;;;;;;;4.39;100.00;102262.75;5037590;28;20326;-61
2022/03/16 06:28:20;;;;;;;41.58;24.60;;;;;;;4.45;100.00;102260.38;5037490;28;20452;-61
2022/03/16 06:30:45;;;;;;;38.42;25.77;;;;;;;4.51;100.00;102257.97;5037946;28;20138;-60
2022/03/16 06:33:10;;;;;;;36.65;24.30;;;;;;;4.76;99.89;102264.88;5038053;28;20108;-61
2022/03/16 06:35:35;;;;;;;34.95;23.30;;;;;;;4.88;98.60;102259.19;5037796;28;20069;-61
2022/03/16 06:38:01;;;;;;;36.65;24.42;;;;;;;4.86;98.47;102266.94;5037469;28;20425;-61
2022/03/16 06:40:26;;;;;;;32.55;22.63;;;;;;;4.84;98.33;102258.25;5037321;28;20040;-61
2022/03/16 06:42:59;;;;;;;34.55;22.50;;;;;;;4.90;98.41;102263.63;5037250;28;20030;-61
2022/03/16 06:45:27;;;;;;;34.70;23.00;;;;;;;4.96;98.14;102252.56;5037344;28;20077;-61
2022/03/16 06:47:55;;;;;;;33.28;21.33;;;;;;;5.13;97.57;102260.88;5037248;28;20033;-61
2022/03/16 06:50:20;;;;;;;32.30;21.55;;;;;;;5.21;96.78;102254.19;5037323;28;20033;-61
2022/03/16 06:52:46;;;;;;;33.00;21.63;;;;;;;5.38;96.82;102242.63;5037169;28;20136;-61
2022/03/16 06:55:12;;;;;;;30.58;20.98;;;;;;;5.58;95.75;102244.09;5037217;28;20048;-61
2022/03/16 06:57:37;;;;;;;30.77;20.45;;;;;;;5.76;94.91;102229.88;5036728;28;20116;-61
2022/03/16 07:00:05;;;;;;;30.92;20.20;;;;;;;5.86;94.06;102230.19;5037019;28;20080;-62
2022/03/16 07:02:30;;;;;;;30.88;19.70;;;;;;;5.93;93.05;102224.34;5037274;28;20029;-61
2022/03/16 07:04:56;;;;;;;30.52;19.42;;;;;;;5.90;93.12;102223.38;5037121;28;20112;-61
2022/03/16 07:07:25;;;;;;;26.75;19.35;;;;;;;5.83;92.65;102224.03;5037077;28;20033;-62
2022/03/16 07:09:50;;;;;;;28.27;17.95;;;;;;;5.89;92.06;102221.63;5036634;28;20048;-62
2022/03/16 07:12:15;;;;;;;26.45;18.15;;;;;;;6.00;92.76;102219.34;5036688;28;20029;-62
2022/03/16 07:14:40;;;;;;;28.75;18.30;;;;;;;6.13;91.98;102224.91;5037091;28;20030;-62
2022/03/16 07:17:06;;;;;;;28.08;18.45;;;;;;;6.29;91.70;102224.47;5036726;28;20115;-62
2022/03/16 07:19:31;;;;;;;28.50;18.30;;;;;;;6.41;90.26;102221.28;5035256;28;20053;-62
2022/03/16 07:21:58;;;;;;;27.25;17.80;;;;;;;6.63;90.41;102228.81;5036624;28;20033;-63
2022/03/16 07:24:25;;;;;;;26.58;18.30;;;;;;;6.78;89.54;102228.28;5036436;28;20041;-62
2022/03/16 07:26:52;;;;;;;24.77;17.00;;;;;;;6.96;88.22;102217.44;5036561;28;20032;-62
2022/03/16 07:29:17;;;;;;;25.52;17.15;;;;;;;7.06;87.51;102215.94;5036556;28;20036;-62
2022/03/16 07:31:42;;;;;;;23.95;17.13;;;;;;;7.19;86.47;102208.44;5036246;28;20025;-61
2022/03/16 07:34:08;;;;;;;24.05;16.35;;;;;;;7.18;86.51;102211.88;5036228;28;20041;-63
2022/03/16 07:36:34;;;;;;;23.63;16.52;;;;;;;7.25;86.43;102205.09;5036729;28;20037;-61
2022/03/16 07:38:59;;;;;;;25.27;16.48;;;;;;;7.37;84.80;102212.28;5036364;28;20095;-62
2022/03/16 07:41:24;;;;;;;22.45;15.88;;;;;;;7.50;84.65;102196.06;5036117;28;20140;-62
2022/03/16 07:43:49;;;;;;;24.15;16.15;;;;;;;7.69;84.43;102186.06;5036236;28;20043;-61
2022/03/16 07:46:15;;;;;;;22.50;15.43;;;;;;;7.84;82.17;102201.13;5036289;28;20424;-62
2022/03/16 07:48:43;;;;;;;22.23;15.68;;;;;;;7.86;82.95;102198.53;5035818;28;20042;-62
2022/03/16 07:51:09;;;;;;;25.80;15.32;;;;;;;8.00;82.31;102197.06;5035524;28;20044;-62
2022/03/16 07:53:34;;;;;;;20.95;15.40;;;;;;;8.03;80.89;102195.41;5036047;28;20090;-61
2022/03/16 07:56:00;;;;;;;21.30;14.98;;;;;;;8.01;80.69;102185.78;5035835;28;20029;-62
2022/03/16 07:58:25;;;;;;;19.40;14.18;;;;;;;8.15;80.03;102186.03;5035873;28;20045;-62
2022/03/16 08:00:50;;;;;;;22.63;16.00;;;;;;;8.16;79.16;102195.63;5035990;28;20041;-62
2022/03/16 08:03:16;;;;;;;23.25;15.32;;;;;;;8.22;79.48;102206.19;5036068;28;20120;-62
2022/03/16 08:05:41;;;;;;;22.88;16.10;;;;;;;8.25;79.10;102203.63;5035614;28;20437;-61
2022/03/16 08:08:07;;;;;;;22.17;14.45;;;;;;;8.39;78.98;102217.81;5035268;28;20033;-61
2022/03/16 08:10:33;;;;;;;21.33;14.23;;;;;;;8.53;77.93;102212.84;5035795;28;20061;-61
2022/03/16 08:12:58;;;;;;;20.45;14.60;;;;;;;8.57;77.69;102197.25;5035492;28;20385;-62
2022/03/16 08:15:23;;;;;;;22.27;15.20;;;;;;;8.54;77.01;102197.22;5035577;28;20112;-61
2022/03/16 08:17:49;;;;;;;21.80;14.98;;;;;;;8.55;77.33;102201.56;5035844;28;20029;-62
2022/03/16 08:20:14;;;;;;;21.23;15.13;;;;;;;8.64;76.88;102198.25;5035573;28;20392;-62
2022/03/16 08:22:40;;;;;;;22.42;15.82;;;;;;;8.80;76.93;102192.41;5035465;28;20032;-67
2022/03/16 08:25:08;;;;;;;22.00;14.93;;;;;;;9.04;75.67;102195.38;5035058;28;20033;-63
2022/03/16 08:27:34;;;;;;;20.77;14.63;;;;;;;9.32;74.65;102193.16;5035533;28;20034;-61
2022/03/16 08:30:00;;;;;;;21.92;14.85;;;;;;;9.74;73.09;102195.41;5035677;28;20026;-62
2022/03/16 08:32:26;;;;;;;20.73;14.75;;;;;;;10.16;71.55;102199.38;5034099;28;20040;-61
2022/03/16 08:34:52;;;;;;;22.17;14.68;;;;;;;10.73;68.83;102199.94;5035595;28;20108;-62
2022/03/16 08:37:18;;;;;;;23.35;15.35;;;;;;;10.97;67.35;102178.25;5035215;28;20372;-62
2022/03/16 08:39:45;;;;;;;21.02;14.65;;;;;;;10.78;68.23;102185.09;5035261;28;20038;-63
2022/03/16 08:42:11;;;;;;;20.65;14.85;;;;;;;10.87;68.42;102186.94;5035370;28;20038;-63
2022/03/16 08:44:37;;;;;;;22.95;15.25;;;;;;;10.87;68.08;102179.06;5035218;28;20112;-62
2022/03/16 08:47:03;;;;;;;21.58;14.30;;;;;;;10.78;67.29;102192.09;5035462;28;20389;-62
2022/03/16 08:49:29;;;;;;;22.38;14.77;;;;;;;10.66;68.18;102190.25;5035135;28;20026;-61
2022/03/16 08:51:56;;;;;;;22.70;14.55;;;;;;;10.63;68.22;102198.09;5034510;28;20364;-62
2022/03/16 08:54:21;;;;;;;21.50;15.00;;;;;;;10.52;68.47;102210.22;5035116;28;20037;-61
2022/03/16 08:56:46;;;;;;;22.40;14.20;;;;;;;10.32;68.67;102202.19;5034833;28;20102;-62
2022/03/16 08:59:11;;;;;;;22.00;14.48;;;;;;;10.27;69.44;102213.47;5035185;28;20116;-62
2022/03/16 09:01:37;;;;;;;24.50;14.70;;;;;;;10.28;69.44;102212.59;5035129;28;20456;-59
2022/03/16 09:04:03;;;;;;;20.95;14.90;;;;;;;10.44;69.88;102217.13;5034804;28;20072;-61
2022/03/16 09:06:29;;;;;;;21.88;14.48;;;;;;;10.55;68.95;102220.72;5034878;28;20037;-62
2022/03/16 09:08:54;;;;;;;26.63;15.20;;;;;;;10.52;68.70;102215.47;5035120;28;20030;-61
2022/03/16 09:11:19;;;;;;;21.40;15.38;;;;;;;10.53;68.55;102209.34;5035037;28;20513;-61
2022/03/16 09:13:46;;;;;;;24.20;15.35;;;;;;;10.71;68.94;102212.13;5034823;28;20044;-61
2022/03/16 09:16:11;;;;;;;25.05;16.13;;;;;;;10.67;69.11;102212.97;5034871;28;20049;-62
2022/03/16 09:18:36;;;;;;;23.08;15.65;;;;;;;10.77;68.57;102209.53;5034651;28;20113;-62
2022/03/16 09:21:02;;;;;;;22.63;15.15;;;;;;;10.89;68.86;102194.81;5034776;28;20045;-62
2022/03/16 09:23:31;;;;;;;23.02;15.65;;;;;;;11.04;67.41;102211.50;5035067;28;20034;-62
2022/03/16 09:26:01;;;;;;;25.10;15.32;;;;;;;10.96;68.05;102204.44;5035006;28;20061;-62
2022/03/16 09:28:27;;;;;;;22.20;15.60;;;;;;;11.04;66.99;102208.88;5034852;28;20400;-61
2022/03/16 09:30:53;;;;;;;23.55;16.50;;;;;;;11.21;67.07;102190.63;5035053;28;20034;-62
2022/03/16 09:33:21;;;;;;;22.88;15.55;;;;;;;11.25;66.65;102200.28;5034461;28;20478;-62
2022/03/16 09:35:48;;;;;;;23.55;15.25;;;;;;;11.21;66.96;102192.38;5034562;28;20113;-61
2022/03/16 09:38:15;;;;;;;23.05;15.20;;;;;;;11.08;67.08;102192.28;5034649;28;20049;-62
2022/03/16 09:40:41;;;;;;;23.85;16.17;;;;;;;11.24;66.62;102192.41;5034765;28;20071;-61
2022/03/16 09:43:08;;;;;;;24.02;16.00;;;;;;;11.44;66.69;102190.72;5036030;28;20041;-62
2022/03/16 09:45:55;;;;;;;25.00;15.80;;;;;;;11.61;66.58;102182.94;5038409;28;20025;-62
2022/03/16 09:48:23;;;;;;;23.33;14.82;;;;;;;11.87;65.46;102190.94;5037858;28;20044;-62
2022/03/16 09:50:53;;;;;;;21.73;14.95;;;;;;;11.91;65.40;102177.84;5038748;28;20037;-62
2022/03/16 09:53:19;;;;;;;23.73;14.85;;;;;;;11.92;64.75;102187.47;5038435;28;20318;-62
2022/03/16 09:55:46;;;;;;;22.33;15.02;;;;;;;11.92;65.12;102170.84;5038146;28;20029;-62
2022/03/16 09:58:12;;;;;;;24.90;15.60;;;;;;;12.01;64.78;102169.09;5038083;28;20033;-62
2022/03/16 10:00:38;;;;;;;23.77;16.00;;;;;;;11.88;64.31;102156.84;5038056;28;20114;-62
2022/03/16 10:03:04;;;;;;;22.73;15.48;;;;;;;12.01;64.66;102183.97;5038027;28;20037;-62
2022/03/16 10:05:30;;;;;;;23.63;13.93;;;;;;;11.96;64.49;102173.47;5037956;28;20037;-61
2022/03/16 10:07:59;;;;;;;20.75;14.13;;;;;;;11.94;64.38;102172.59;5038359;28;20029;-62
2022/03/16 10:13:18;;;;;;;24.03;15.40;;;;;;;12.01;64.78;102161.22;5038096;28;20459;-62
2022/03/16 10:15:44;;;;;;;22.88;15.10;;;;;;;12.27;64.96;102150.78;5038086;28;20619;-61
2022/03/16 10:18:10;;;;;;;19.27;14.30;;;;;;;12.45;63.17;102156.03;5037813;28;20116;-61
2022/03/16 10:20:39;;;;;;;21.70;14.85;;;;;;;12.43;62.74;102157.78;5038034;28;20360;-62
2022/03/16 10:23:13;;;;;;;22.38;15.15;;;;;;;12.43;63.54;102159.53;5037228;28;20082;-62
2022/03/16 10:25:40;;;;;;;20.05;14.07;;;;;;;12.43;63.49;102168.28;5037703;28;20105;-61
2022/03/16 10:28:12;;;;;;;20.15;13.85;;;;;;;12.57;62.98;102159.53;5037692;28;20026;-62
2022/03/16 10:30:50;;;;;;;18.20;13.48;;;;;;;12.58;63.96;102167.41;5037939;28;20034;-62
2022/03/16 10:33:16;;;;;;;19.55;13.70;;;;;;;12.66;62.92;102155.13;5037279;28;20072;-63
2022/03/16 10:36:07;;;;;;;19.35;14.30;;;;;;;12.78;63.75;102155.13;5037443;28;20086;-62
2022/03/16 10:39:03;;;;;;;16.92;12.70;;;;;;;12.93;62.77;102148.09;5037788;28;20072;-64
2022/03/16 10:47:16;;;;;;;22.15;14.63;;;;;;;13.34;61.87;102143.59;5037307;28;20083;-61
2022/03/16 10:49:42;;;;;;;20.33;14.40;;;;;;;13.39;61.30;102143.59;5036131;28;20526;-62
2022/03/16 10:52:11;;;;;;;16.83;13.38;;;;;;;13.31;61.00;102138.38;5037384;28;20036;-61
2022/03/16 10:54:37;;;;;;;19.42;12.55;;;;;;;13.10;61.46;102146.31;5036134;28;20033;-61
2022/03/16 10:57:05;;;;;;;17.52;12.32;;;;;;;13.11;61.76;102142.78;5037247;28;20061;-61
2022/03/16 10:59:33;;;;;;;16.27;11.70;;;;;;;13.17;61.84;102138.41;5037188;28;20037;-61
2022/03/16 11:02:03;;;;;;;15.20;11.27;;;;;;;13.25;61.66;102143.66;5036801;28;20046;-62
2022/03/16 11:04:29;;;;;;;16.40;11.82;;;;;;;13.28;61.54;102138.38;5036849;28;20041;-61
2022/03/16 11:06:57;;;;;;;15.05;11.35;;;;;;;13.47;61.81;102132.16;5036545;28;20045;-61
2022/03/16 11:09:24;;;;;;;19.88;12.85;;;;;;;13.41;60.98;102132.19;5036990;28;20030;-61
2022/03/16 11:14:34;;;;;;;16.63;12.65;;;;;;;13.09;61.54;102142.78;5037193;28;20199;-61
2022/03/16 11:17:02;;;;;;;16.15;11.75;;;;;;;13.02;62.49;102134.91;5036813;28;20030;-62
2022/03/16 11:19:29;;;;;;;15.45;11.63;;;;;;;12.97;62.59;102136.72;5036875;28;20056;-61